sensor_id;sensor_type;location;lat;lon;timestamp;temperature;humidity
18934;DHT22;9599;53.706;10.384;2023-11-19T00:00:22;5.60;99.90
18934;DHT22;9599;53.706;10.384;2023-11-19T00:02:51;5.70;99.90
18934;DHT22;9599;53.706;10.384;2023-11-19T00:05:19;5.70;99.90
18934;DHT22;9599;53.706;10.384;2023-11-19T00:07:47;5.60;99.90
18934;DHT22;9599;53.706;10.384;2023-11-19T00:10:16;5.70;99.90
18934;DHT22;9599;53.706;10.384;2023-11-19T00:12:47;5.70;99.90
18934;DHT22;9599;53.706;10.384;2023-11-19T00:15:16;5.70;99.90
18934;DHT22;9599;53.706;10.384;2023-11-19T00:17:46;5.70;99.90
18934;DHT22;9599;53.706;10.384;2023-11-19T00:20:17;5.70;99.90
18934;DHT22;9599;53.706;10.384;2023-11-19T00:22:45;5.70;99.90
18934;DHT22;9599;53.706;10.384;2023-11-19T00:25:16;5.70;99.90
18934;DHT22;9599;53.706;10.384;2023-11-19T00:27:44;5.70;99.90
18934;DHT22;9599;53.706;10.384;2023-11-19T00:30:13;5.70;99.90
18934;DHT22;9599;53.706;10.384;2023-11-19T00:32:42;5.70;99.90
18934;DHT22;9599;53.706;10.384;2023-11-19T00:35:10;5.70;99.90
18934;DHT22;9599;53.706;10.384;2023-11-19T00:37:39;5.70;99.90
18934;DHT22;9599;53.706;10.384;2023-11-19T00:40:10;5.70;99.90
18934;DHT22;9599;53.706;10.384;2023-11-19T00:42:38;5.70;99.90
18934;DHT22;9599;53.706;10.384;2023-11-19T00:45:06;5.70;99.90
18934;DHT22;9599;53.706;10.384;2023-11-19T00:47:38;5.70;99.90
18934;DHT22;9599;53.706;10.384;2023-11-19T00:50:07;5.70;99.90
18934;DHT22;9599;53.706;10.384;2023-11-19T00:52:38;5.80;99.90
18934;DHT22;9599;53.706;10.384;2023-11-19T00:55:06;5.80;99.90
18934;DHT22;9599;53.706;10.384;2023-11-19T00:57:35;5.80;99.90
18934;DHT22;9599;53.706;10.384;2023-11-19T01:00:04;5.80;99.90
18934;DHT22;9599;53.706;10.384;2023-11-19T01:02:42;5.80;99.90
18934;DHT22;9599;53.706;10.384;2023-11-19T01:05:10;5.80;99.90
18934;DHT22;9599;53.706;10.384;2023-11-19T01:07:42;5.80;99.90
18934;DHT22;9599;53.706;10.384;2023-11-19T01:10:10;5.80;99.90
18934;DHT22;9599;53.706;10.384;2023-11-19T01:12:38;5.80;99.90
18934;DHT22;9599;53.706;10.384;2023-11-19T01:15:07;5.80;99.90
18934;DHT22;9599;53.706;10.384;2023-11-19T01:17:37;5.90;99.90
18934;DHT22;9599;53.706;10.384;2023-11-19T01:20:06;5.90;99.90
18934;DHT22;9599;53.706;10.384;2023-11-19T01:22:34;5.90;99.90
18934;DHT22;9599;53.706;10.384;2023-11-19T01:25:04;5.90;99.90
18934;DHT22;9599;53.706;10.384;2023-11-19T01:27:32;5.90;99.90
18934;DHT22;9599;53.706;10.384;2023-11-19T01:30:02;5.90;99.90
18934;DHT22;9599;53.706;10.384;2023-11-19T01:32:33;5.90;99.90
18934;DHT22;9599;53.706;10.384;2023-11-19T01:35:01;5.90;99.90
18934;DHT22;9599;53.706;10.384;2023-11-19T01:37:29;5.90;99.90
18934;DHT22;9599;53.706;10.384;2023-11-19T01:39:58;5.90;99.90
18934;DHT22;9599;53.706;10.384;2023-11-19T01:42:27;5.90;99.90
18934;DHT22;9599;53.706;10.384;2023-11-19T01:44:58;6.00;99.90
18934;DHT22;9599;53.706;10.384;2023-11-19T01:47:27;6.00;99.90
18934;DHT22;9599;53.706;10.384;2023-11-19T01:49:56;5.90;99.90
18934;DHT22;9599;53.706;10.384;2023-11-19T01:52:25;5.90;99.90
18934;DHT22;9599;53.706;10.384;2023-11-19T01:54:54;6.00;99.90
18934;DHT22;9599;53.706;10.384;2023-11-19T01:57:23;6.00;99.90
18934;DHT22;9599;53.706;10.384;2023-11-19T01:59:53;6.00;99.90
18934;DHT22;9599;53.706;10.384;2023-11-19T02:02:21;6.00;99.90
18934;DHT22;9599;53.706;10.384;2023-11-19T02:04:50;6.00;99.90
18934;DHT22;9599;53.706;10.384;2023-11-19T02:07:18;6.00;99.90
18934;DHT22;9599;53.706;10.384;2023-11-19T02:09:47;5.90;99.90
18934;DHT22;9599;53.706;10.384;2023-11-19T02:12:15;5.90;99.90
18934;DHT22;9599;53.706;10.384;2023-11-19T02:14:43;5.90;99.90
18934;DHT22;9599;53.706;10.384;2023-11-19T02:17:26;5.90;99.90
18934;DHT22;9599;53.706;10.384;2023-11-19T02:19:56;5.90;99.90
18934;DHT22;9599;53.706;10.384;2023-11-19T02:22:27;6.00;99.90
18934;DHT22;9599;53.706;10.384;2023-11-19T02:24:59;6.00;99.90
18934;DHT22;9599;53.706;10.384;2023-11-19T02:27:38;5.90;99.90
18934;DHT22;9599;53.706;10.384;2023-11-19T02:30:07;6.00;99.90
18934;DHT22;9599;53.706;10.384;2023-11-19T02:32:35;6.00;99.90
18934;DHT22;9599;53.706;10.384;2023-11-19T02:35:08;6.00;99.90
18934;DHT22;9599;53.706;10.384;2023-11-19T02:37:36;5.90;99.90
18934;DHT22;9599;53.706;10.384;2023-11-19T02:40:06;5.90;99.90
18934;DHT22;9599;53.706;10.384;2023-11-19T02:42:37;5.90;99.90
18934;DHT22;9599;53.706;10.384;2023-11-19T02:45:06;5.90;99.90
18934;DHT22;9599;53.706;10.384;2023-11-19T02:47:40;6.00;99.90
18934;DHT22;9599;53.706;10.384;2023-11-19T02:50:09;6.00;99.90
18934;DHT22;9599;53.706;10.384;2023-11-19T02:52:41;6.00;99.90
18934;DHT22;9599;53.706;10.384;2023-11-19T02:55:10;6.00;99.90
18934;DHT22;9599;53.706;10.384;2023-11-19T02:57:41;6.00;99.90
18934;DHT22;9599;53.706;10.384;2023-11-19T03:00:14;6.00;99.90
18934;DHT22;9599;53.706;10.384;2023-11-19T03:02:42;6.00;99.90
18934;DHT22;9599;53.706;10.384;2023-11-19T03:05:13;6.00;99.90
18934;DHT22;9599;53.706;10.384;2023-11-19T03:07:43;6.00;99.90
18934;DHT22;9599;53.706;10.384;2023-11-19T03:10:12;6.00;99.90
18934;DHT22;9599;53.706;10.384;2023-11-19T03:12:43;6.00;99.90
18934;DHT22;9599;53.706;10.384;2023-11-19T03:15:12;6.00;99.90
18934;DHT22;9599;53.706;10.384;2023-11-19T03:17:41;6.00;99.90
18934;DHT22;9599;53.706;10.384;2023-11-19T03:20:10;6.00;99.90
18934;DHT22;9599;53.706;10.384;2023-11-19T03:22:42;6.00;99.90
18934;DHT22;9599;53.706;10.384;2023-11-19T03:25:10;6.00;99.90
18934;DHT22;9599;53.706;10.384;2023-11-19T03:27:42;6.00;99.90
18934;DHT22;9599;53.706;10.384;2023-11-19T03:30:10;6.10;99.90
18934;DHT22;9599;53.706;10.384;2023-11-19T03:32:38;6.10;99.90
18934;DHT22;9599;53.706;10.384;2023-11-19T03:35:07;6.10;99.90
18934;DHT22;9599;53.706;10.384;2023-11-19T03:37:35;6.10;99.90
18934;DHT22;9599;53.706;10.384;2023-11-19T03:40:05;6.10;99.90
18934;DHT22;9599;53.706;10.384;2023-11-19T03:42:33;6.10;99.90
18934;DHT22;9599;53.706;10.384;2023-11-19T03:45:02;6.10;99.90
18934;DHT22;9599;53.706;10.384;2023-11-19T03:47:31;6.20;99.90
18934;DHT22;9599;53.706;10.384;2023-11-19T03:49:59;6.10;99.90
18934;DHT22;9599;53.706;10.384;2023-11-19T03:52:27;6.10;99.90
18934;DHT22;9599;53.706;10.384;2023-11-19T03:54:55;6.20;99.90
18934;DHT22;9599;53.706;10.384;2023-11-19T03:57:24;6.20;99.90
18934;DHT22;9599;53.706;10.384;2023-11-19T03:59:52;6.20;99.90
18934;DHT22;9599;53.706;10.384;2023-11-19T04:02:21;6.20;99.90
18934;DHT22;9599;53.706;10.384;2023-11-19T04:04:49;6.20;99.90
18934;DHT22;9599;53.706;10.384;2023-11-19T04:07:17;6.20;99.90
18934;DHT22;9599;53.706;10.384;2023-11-19T04:09:45;6.30;99.90
18934;DHT22;9599;53.706;10.384;2023-11-19T04:12:13;6.30;99.90
18934;DHT22;9599;53.706;10.384;2023-11-19T04:14:42;6.30;99.90
18934;DHT22;9599;53.706;10.384;2023-11-19T04:17:11;6.30;99.90
18934;DHT22;9599;53.706;10.384;2023-11-19T04:19:40;6.30;99.90
18934;DHT22;9599;53.706;10.384;2023-11-19T04:22:10;6.30;99.90
18934;DHT22;9599;53.706;10.384;2023-11-19T04:24:38;6.40;99.90
18934;DHT22;9599;53.706;10.384;2023-11-19T04:27:07;6.40;99.90
18934;DHT22;9599;53.706;10.384;2023-11-19T04:29:35;6.40;99.90
18934;DHT22;9599;53.706;10.384;2023-11-19T04:32:04;6.40;99.90
18934;DHT22;9599;53.706;10.384;2023-11-19T04:34:32;6.40;99.90
18934;DHT22;9599;53.706;10.384;2023-11-19T04:37:01;6.50;99.90
18934;DHT22;9599;53.706;10.384;2023-11-19T04:39:32;6.50;99.90
18934;DHT22;9599;53.706;10.384;2023-11-19T04:42:01;6.50;99.90
18934;DHT22;9599;53.706;10.384;2023-11-19T04:44:29;6.50;99.90
18934;DHT22;9599;53.706;10.384;2023-11-19T04:46:57;6.50;99.90
18934;DHT22;9599;53.706;10.384;2023-11-19T04:49:25;6.60;99.90
18934;DHT22;9599;53.706;10.384;2023-11-19T04:51:54;6.60;99.90
18934;DHT22;9599;53.706;10.384;2023-11-19T04:54:23;6.60;99.90
18934;DHT22;9599;53.706;10.384;2023-11-19T04:56:51;6.60;99.90
18934;DHT22;9599;53.706;10.384;2023-11-19T04:59:20;6.70;99.90
18934;DHT22;9599;53.706;10.384;2023-11-19T05:01:47;6.70;99.90
18934;DHT22;9599;53.706;10.384;2023-11-19T05:04:15;6.70;99.90
18934;DHT22;9599;53.706;10.384;2023-11-19T05:06:45;6.80;99.90
18934;DHT22;9599;53.706;10.384;2023-11-19T05:09:13;6.80;99.90
18934;DHT22;9599;53.706;10.384;2023-11-19T05:11:44;6.80;99.90
18934;DHT22;9599;53.706;10.384;2023-11-19T05:14:15;6.90;99.90
18934;DHT22;9599;53.706;10.384;2023-11-19T05:16:43;6.90;99.90
18934;DHT22;9599;53.706;10.384;2023-11-19T05:19:11;7.00;99.90
18934;DHT22;9599;53.706;10.384;2023-11-19T05:21:41;7.00;99.90
18934;DHT22;9599;53.706;10.384;2023-11-19T05:24:09;7.10;99.90
18934;DHT22;9599;53.706;10.384;2023-11-19T05:26:38;7.30;99.90
18934;DHT22;9599;53.706;10.384;2023-11-19T05:29:07;7.50;99.90
18934;DHT22;9599;53.706;10.384;2023-11-19T05:31:35;7.60;99.90
18934;DHT22;9599;53.706;10.384;2023-11-19T05:34:05;7.70;99.90
18934;DHT22;9599;53.706;10.384;2023-11-19T05:36:34;7.80;99.90
18934;DHT22;9599;53.706;10.384;2023-11-19T05:39:02;8.00;99.90
18934;DHT22;9599;53.706;10.384;2023-11-19T05:41:31;8.00;99.90
18934;DHT22;9599;53.706;10.384;2023-11-19T05:43:59;8.10;99.90
18934;DHT22;9599;53.706;10.384;2023-11-19T05:46:29;8.20;99.90
18934;DHT22;9599;53.706;10.384;2023-11-19T05:48:57;8.20;99.90
18934;DHT22;9599;53.706;10.384;2023-11-19T05:51:25;8.30;99.90
18934;DHT22;9599;53.706;10.384;2023-11-19T05:53:53;8.30;99.90
18934;DHT22;9599;53.706;10.384;2023-11-19T05:56:22;8.30;99.90
18934;DHT22;9599;53.706;10.384;2023-11-19T05:58:51;8.30;99.90
18934;DHT22;9599;53.706;10.384;2023-11-19T06:01:19;8.40;99.90
18934;DHT22;9599;53.706;10.384;2023-11-19T06:03:49;8.40;99.90
18934;DHT22;9599;53.706;10.384;2023-11-19T06:06:17;8.40;99.90
18934;DHT22;9599;53.706;10.384;2023-11-19T06:08:45;8.50;99.90
18934;DHT22;9599;53.706;10.384;2023-11-19T06:11:15;8.60;99.90
18934;DHT22;9599;53.706;10.384;2023-11-19T06:13:45;8.60;99.90
18934;DHT22;9599;53.706;10.384;2023-11-19T06:16:14;8.60;99.90
18934;DHT22;9599;53.706;10.384;2023-11-19T06:18:43;8.70;99.90
18934;DHT22;9599;53.706;10.384;2023-11-19T06:21:13;8.70;99.90
18934;DHT22;9599;53.706;10.384;2023-11-19T06:23:41;8.70;99.90
18934;DHT22;9599;53.706;10.384;2023-11-19T06:26:09;8.80;99.90
18934;DHT22;9599;53.706;10.384;2023-11-19T06:28:37;8.80;99.90
18934;DHT22;9599;53.706;10.384;2023-11-19T06:31:05;8.90;99.90
18934;DHT22;9599;53.706;10.384;2023-11-19T06:33:34;8.90;99.90
18934;DHT22;9599;53.706;10.384;2023-11-19T06:36:02;8.90;99.90
18934;DHT22;9599;53.706;10.384;2023-11-19T06:38:31;8.90;99.90
18934;DHT22;9599;53.706;10.384;2023-11-19T06:40:59;9.00;99.90
18934;DHT22;9599;53.706;10.384;2023-11-19T06:43:28;9.00;99.90
18934;DHT22;9599;53.706;10.384;2023-11-19T06:46:14;9.10;99.90
18934;DHT22;9599;53.706;10.384;2023-11-19T06:48:43;9.20;99.90
18934;DHT22;9599;53.706;10.384;2023-11-19T06:51:11;9.30;99.90
18934;DHT22;9599;53.706;10.384;2023-11-19T06:53:42;9.30;99.90
18934;DHT22;9599;53.706;10.384;2023-11-19T06:56:18;9.30;99.90
18934;DHT22;9599;53.706;10.384;2023-11-19T06:58:46;9.30;99.90
18934;DHT22;9599;53.706;10.384;2023-11-19T07:01:15;9.30;99.90
18934;DHT22;9599;53.706;10.384;2023-11-19T07:03:45;9.30;99.90
18934;DHT22;9599;53.706;10.384;2023-11-19T07:06:13;9.30;99.90
18934;DHT22;9599;53.706;10.384;2023-11-19T07:08:43;9.40;99.90
18934;DHT22;9599;53.706;10.384;2023-11-19T07:11:12;9.40;99.90
18934;DHT22;9599;53.706;10.384;2023-11-19T07:13:40;9.50;99.90
18934;DHT22;9599;53.706;10.384;2023-11-19T07:16:09;9.60;99.90
18934;DHT22;9599;53.706;10.384;2023-11-19T07:18:37;9.70;99.90
18934;DHT22;9599;53.706;10.384;2023-11-19T07:21:07;9.70;99.90
18934;DHT22;9599;53.706;10.384;2023-11-19T07:23:37;9.80;99.90
18934;DHT22;9599;53.706;10.384;2023-11-19T07:26:07;9.80;99.90
18934;DHT22;9599;53.706;10.384;2023-11-19T07:28:38;9.90;99.90
18934;DHT22;9599;53.706;10.384;2023-11-19T07:31:06;9.90;99.90
18934;DHT22;9599;53.706;10.384;2023-11-19T07:33:35;10.00;99.90
18934;DHT22;9599;53.706;10.384;2023-11-19T07:36:04;10.10;99.90
18934;DHT22;9599;53.706;10.384;2023-11-19T07:38:33;10.10;99.90
18934;DHT22;9599;53.706;10.384;2023-11-19T07:41:01;10.20;99.90
18934;DHT22;9599;53.706;10.384;2023-11-19T07:43:30;10.20;99.90
18934;DHT22;9599;53.706;10.384;2023-11-19T07:45:58;10.30;99.90
18934;DHT22;9599;53.706;10.384;2023-11-19T07:48:26;10.40;99.90
18934;DHT22;9599;53.706;10.384;2023-11-19T07:50:54;10.50;99.90
18934;DHT22;9599;53.706;10.384;2023-11-19T07:53:22;10.60;99.90
18934;DHT22;9599;53.706;10.384;2023-11-19T07:55:50;10.70;99.90
18934;DHT22;9599;53.706;10.384;2023-11-19T07:58:18;10.70;99.90
18934;DHT22;9599;53.706;10.384;2023-11-19T08:00:47;10.80;99.90
18934;DHT22;9599;53.706;10.384;2023-11-19T08:03:15;10.90;99.90
18934;DHT22;9599;53.706;10.384;2023-11-19T08:05:44;10.90;99.90
18934;DHT22;9599;53.706;10.384;2023-11-19T08:08:12;11.00;99.90
18934;DHT22;9599;53.706;10.384;2023-11-19T08:10:41;11.00;99.90
18934;DHT22;9599;53.706;10.384;2023-11-19T08:13:09;11.10;99.90
18934;DHT22;9599;53.706;10.384;2023-11-19T08:15:37;11.10;99.90
18934;DHT22;9599;53.706;10.384;2023-11-19T08:18:06;11.20;99.90
18934;DHT22;9599;53.706;10.384;2023-11-19T08:20:35;11.20;99.90
18934;DHT22;9599;53.706;10.384;2023-11-19T08:23:03;11.20;99.90
18934;DHT22;9599;53.706;10.384;2023-11-19T08:25:32;11.20;99.90
18934;DHT22;9599;53.706;10.384;2023-11-19T08:28:00;11.20;99.90
18934;DHT22;9599;53.706;10.384;2023-11-19T08:30:30;11.30;99.90
18934;DHT22;9599;53.706;10.384;2023-11-19T08:32:58;11.30;99.90
18934;DHT22;9599;53.706;10.384;2023-11-19T08:35:31;11.30;99.90
18934;DHT22;9599;53.706;10.384;2023-11-19T08:37:59;11.40;99.90
18934;DHT22;9599;53.706;10.384;2023-11-19T08:40:28;11.40;99.90
18934;DHT22;9599;53.706;10.384;2023-11-19T08:42:56;11.40;99.90
18934;DHT22;9599;53.706;10.384;2023-11-19T08:45:24;11.40;99.90
18934;DHT22;9599;53.706;10.384;2023-11-19T08:47:52;11.50;99.90
18934;DHT22;9599;53.706;10.384;2023-11-19T08:50:20;11.50;99.90
18934;DHT22;9599;53.706;10.384;2023-11-19T08:52:50;11.50;99.90
18934;DHT22;9599;53.706;10.384;2023-11-19T08:55:18;11.40;99.90
18934;DHT22;9599;53.706;10.384;2023-11-19T08:57:46;11.50;99.90
18934;DHT22;9599;53.706;10.384;2023-11-19T09:00:14;11.50;99.90
18934;DHT22;9599;53.706;10.384;2023-11-19T09:02:42;11.50;99.90
18934;DHT22;9599;53.706;10.384;2023-11-19T09:05:11;11.50;99.90
18934;DHT22;9599;53.706;10.384;2023-11-19T09:07:39;11.50;99.90
18934;DHT22;9599;53.706;10.384;2023-11-19T09:10:09;11.60;99.90
18934;DHT22;9599;53.706;10.384;2023-11-19T09:12:38;11.60;99.90
18934;DHT22;9599;53.706;10.384;2023-11-19T09:15:06;11.50;99.90
18934;DHT22;9599;53.706;10.384;2023-11-19T09:17:37;11.50;99.90
18934;DHT22;9599;53.706;10.384;2023-11-19T09:20:06;11.50;99.90
18934;DHT22;9599;53.706;10.384;2023-11-19T09:22:35;11.60;99.90
18934;DHT22;9599;53.706;10.384;2023-11-19T09:25:03;11.60;99.90
18934;DHT22;9599;53.706;10.384;2023-11-19T09:27:33;11.60;99.90
18934;DHT22;9599;53.706;10.384;2023-11-19T09:30:01;11.70;99.90
18934;DHT22;9599;53.706;10.384;2023-11-19T09:32:30;11.70;99.90
18934;DHT22;9599;53.706;10.384;2023-11-19T09:34:58;11.70;99.90
18934;DHT22;9599;53.706;10.384;2023-11-19T09:37:27;11.70;99.90
18934;DHT22;9599;53.706;10.384;2023-11-19T09:39:55;11.80;99.90
18934;DHT22;9599;53.706;10.384;2023-11-19T09:42:24;11.80;99.90
18934;DHT22;9599;53.706;10.384;2023-11-19T09:44:53;11.90;99.90
18934;DHT22;9599;53.706;10.384;2023-11-19T09:47:23;11.90;99.90
18934;DHT22;9599;53.706;10.384;2023-11-19T09:49:54;11.90;99.90
18934;DHT22;9599;53.706;10.384;2023-11-19T09:52:24;11.80;99.90
18934;DHT22;9599;53.706;10.384;2023-11-19T09:54:52;11.90;99.90
18934;DHT22;9599;53.706;10.384;2023-11-19T09:57:21;11.90;99.90
18934;DHT22;9599;53.706;10.384;2023-11-19T09:59:50;11.90;99.90
18934;DHT22;9599;53.706;10.384;2023-11-19T10:02:20;11.90;99.90
18934;DHT22;9599;53.706;10.384;2023-11-19T10:04:49;11.90;99.90
18934;DHT22;9599;53.706;10.384;2023-11-19T10:07:18;11.90;99.90
18934;DHT22;9599;53.706;10.384;2023-11-19T10:09:48;11.90;99.90
18934;DHT22;9599;53.706;10.384;2023-11-19T10:12:16;11.90;99.90
18934;DHT22;9599;53.706;10.384;2023-11-19T10:14:44;11.90;99.90
18934;DHT22;9599;53.706;10.384;2023-11-19T10:17:13;11.90;99.90
18934;DHT22;9599;53.706;10.384;2023-11-19T10:19:42;12.00;99.90
18934;DHT22;9599;53.706;10.384;2023-11-19T10:22:11;12.10;99.90
18934;DHT22;9599;53.706;10.384;2023-11-19T10:24:40;12.10;99.90
18934;DHT22;9599;53.706;10.384;2023-11-19T10:27:15;12.10;99.90
18934;DHT22;9599;53.706;10.384;2023-11-19T10:29:45;12.20;99.90
18934;DHT22;9599;53.706;10.384;2023-11-19T10:32:13;12.30;99.90
18934;DHT22;9599;53.706;10.384;2023-11-19T10:35:05;12.30;99.90
18934;DHT22;9599;53.706;10.384;2023-11-19T10:37:34;12.20;99.90
18934;DHT22;9599;53.706;10.384;2023-11-19T10:40:05;12.20;99.90
18934;DHT22;9599;53.706;10.384;2023-11-19T10:42:33;12.20;99.90
18934;DHT22;9599;53.706;10.384;2023-11-19T10:45:01;12.10;99.90
18934;DHT22;9599;53.706;10.384;2023-11-19T10:47:28;12.10;99.90
18934;DHT22;9599;53.706;10.384;2023-11-19T10:50:01;12.10;99.90
18934;DHT22;9599;53.706;10.384;2023-11-19T10:52:30;12.20;99.90
18934;DHT22;9599;53.706;10.384;2023-11-19T10:55:00;12.20;99.90
18934;DHT22;9599;53.706;10.384;2023-11-19T10:57:30;12.30;99.90
18934;DHT22;9599;53.706;10.384;2023-11-19T11:00:02;12.30;99.90
18934;DHT22;9599;53.706;10.384;2023-11-19T11:02:35;12.30;99.90
18934;DHT22;9599;53.706;10.384;2023-11-19T11:05:06;12.20;99.90
18934;DHT22;9599;53.706;10.384;2023-11-19T11:07:35;12.20;99.90
18934;DHT22;9599;53.706;10.384;2023-11-19T11:10:08;12.30;99.90
18934;DHT22;9599;53.706;10.384;2023-11-19T11:12:37;12.30;99.90
18934;DHT22;9599;53.706;10.384;2023-11-19T11:15:07;12.20;99.90
18934;DHT22;9599;53.706;10.384;2023-11-19T11:17:39;12.30;99.90
18934;DHT22;9599;53.706;10.384;2023-11-19T11:20:11;12.20;99.90
18934;DHT22;9599;53.706;10.384;2023-11-19T11:22:52;12.10;99.90
18934;DHT22;9599;53.706;10.384;2023-11-19T11:25:31;12.10;99.90
18934;DHT22;9599;53.706;10.384;2023-11-19T11:28:14;12.00;99.90
18934;DHT22;9599;53.706;10.384;2023-11-19T11:31:00;12.00;99.90
18934;DHT22;9599;53.706;10.384;2023-11-19T11:33:41;12.00;99.90
18934;DHT22;9599;53.706;10.384;2023-11-19T11:36:37;12.00;99.90
18934;DHT22;9599;53.706;10.384;2023-11-19T11:39:09;12.00;99.90
18934;DHT22;9599;53.706;10.384;2023-11-19T11:41:37;12.00;99.90
18934;DHT22;9599;53.706;10.384;2023-11-19T11:44:05;12.00;99.90
18934;DHT22;9599;53.706;10.384;2023-11-19T11:46:55;12.00;99.90
18934;DHT22;9599;53.706;10.384;2023-11-19T11:49:27;12.10;99.90
18934;DHT22;9599;53.706;10.384;2023-11-19T11:52:04;12.10;99.90
18934;DHT22;9599;53.706;10.384;2023-11-19T11:54:32;12.10;99.90
18934;DHT22;9599;53.706;10.384;2023-11-19T11:57:05;12.10;99.90
18934;DHT22;9599;53.706;10.384;2023-11-19T11:59:42;12.10;99.90
18934;DHT22;9599;53.706;10.384;2023-11-19T12:02:12;12.10;99.90
18934;DHT22;9599;53.706;10.384;2023-11-19T12:04:40;12.10;99.90
18934;DHT22;9599;53.706;10.384;2023-11-19T12:07:13;12.20;99.90
18934;DHT22;9599;53.706;10.384;2023-11-19T12:09:42;12.20;99.90
18934;DHT22;9599;53.706;10.384;2023-11-19T12:12:21;12.30;99.90
18934;DHT22;9599;53.706;10.384;2023-11-19T12:15:03;12.30;99.90
18934;DHT22;9599;53.706;10.384;2023-11-19T12:17:37;12.30;99.90
18934;DHT22;9599;53.706;10.384;2023-11-19T12:20:11;12.30;99.90
18934;DHT22;9599;53.706;10.384;2023-11-19T12:22:42;12.20;99.90
18934;DHT22;9599;53.706;10.384;2023-11-19T12:25:11;12.20;99.90
18934;DHT22;9599;53.706;10.384;2023-11-19T12:27:40;12.10;99.90
18934;DHT22;9599;53.706;10.384;2023-11-19T12:30:09;12.00;99.90
18934;DHT22;9599;53.706;10.384;2023-11-19T12:32:40;12.00;99.90
18934;DHT22;9599;53.706;10.384;2023-11-19T12:35:10;12.00;99.90
18934;DHT22;9599;53.706;10.384;2023-11-19T12:37:41;12.00;99.90
18934;DHT22;9599;53.706;10.384;2023-11-19T12:40:14;11.90;99.90
18934;DHT22;9599;53.706;10.384;2023-11-19T12:42:42;12.00;99.90
18934;DHT22;9599;53.706;10.384;2023-11-19T12:45:10;11.90;99.90
18934;DHT22;9599;53.706;10.384;2023-11-19T12:47:39;11.90;99.90
18934;DHT22;9599;53.706;10.384;2023-11-19T12:50:08;12.00;99.90
18934;DHT22;9599;53.706;10.384;2023-11-19T12:52:37;12.10;99.90
18934;DHT22;9599;53.706;10.384;2023-11-19T12:55:25;12.10;99.90
18934;DHT22;9599;53.706;10.384;2023-11-19T12:57:56;12.10;99.90
18934;DHT22;9599;53.706;10.384;2023-11-19T13:00:26;12.00;99.90
18934;DHT22;9599;53.706;10.384;2023-11-19T13:02:56;12.10;99.90
18934;DHT22;9599;53.706;10.384;2023-11-19T13:05:26;12.00;99.90
18934;DHT22;9599;53.706;10.384;2023-11-19T13:07:59;12.00;99.90
18934;DHT22;9599;53.706;10.384;2023-11-19T13:10:29;12.10;99.90
18934;DHT22;9599;53.706;10.384;2023-11-19T13:13:02;12.10;99.90
18934;DHT22;9599;53.706;10.384;2023-11-19T13:15:30;12.10;99.90
18934;DHT22;9599;53.706;10.384;2023-11-19T13:17:59;12.10;99.90
18934;DHT22;9599;53.706;10.384;2023-11-19T13:20:27;12.10;99.90
18934;DHT22;9599;53.706;10.384;2023-11-19T13:22:56;12.20;99.90
18934;DHT22;9599;53.706;10.384;2023-11-19T13:25:24;12.20;99.90
18934;DHT22;9599;53.706;10.384;2023-11-19T13:27:54;12.20;99.90
18934;DHT22;9599;53.706;10.384;2023-11-19T13:30:23;12.20;99.90
18934;DHT22;9599;53.706;10.384;2023-11-19T13:32:54;12.10;99.90
18934;DHT22;9599;53.706;10.384;2023-11-19T13:35:23;12.10;99.90
18934;DHT22;9599;53.706;10.384;2023-11-19T13:37:52;12.10;99.90
18934;DHT22;9599;53.706;10.384;2023-11-19T13:40:20;12.10;99.90
18934;DHT22;9599;53.706;10.384;2023-11-19T13:42:49;12.20;99.90
18934;DHT22;9599;53.706;10.384;2023-11-19T13:45:18;12.20;99.90
18934;DHT22;9599;53.706;10.384;2023-11-19T13:47:47;12.20;99.90
18934;DHT22;9599;53.706;10.384;2023-11-19T13:50:16;12.20;99.90
18934;DHT22;9599;53.706;10.384;2023-11-19T13:52:44;12.20;99.90
18934;DHT22;9599;53.706;10.384;2023-11-19T13:55:14;12.10;99.90
18934;DHT22;9599;53.706;10.384;2023-11-19T13:57:42;12.10;99.90
18934;DHT22;9599;53.706;10.384;2023-11-19T14:00:12;12.00;99.90
18934;DHT22;9599;53.706;10.384;2023-11-19T14:02:45;12.00;99.90
18934;DHT22;9599;53.706;10.384;2023-11-19T14:05:14;12.00;99.90
18934;DHT22;9599;53.706;10.384;2023-11-19T14:07:44;12.00;99.90
18934;DHT22;9599;53.706;10.384;2023-11-19T14:10:12;12.00;99.90
18934;DHT22;9599;53.706;10.384;2023-11-19T14:12:41;12.00;99.90
18934;DHT22;9599;53.706;10.384;2023-11-19T14:15:10;12.10;99.90
18934;DHT22;9599;53.706;10.384;2023-11-19T14:17:39;12.10;99.90
18934;DHT22;9599;53.706;10.384;2023-11-19T14:20:09;12.10;99.90
18934;DHT22;9599;53.706;10.384;2023-11-19T14:22:41;12.10;99.90
18934;DHT22;9599;53.706;10.384;2023-11-19T14:25:10;12.10;99.90
18934;DHT22;9599;53.706;10.384;2023-11-19T14:27:39;12.00;99.90
18934;DHT22;9599;53.706;10.384;2023-11-19T14:30:09;12.00;99.90
18934;DHT22;9599;53.706;10.384;2023-11-19T14:32:41;12.00;99.90
18934;DHT22;9599;53.706;10.384;2023-11-19T14:35:12;12.00;99.90
18934;DHT22;9599;53.706;10.384;2023-11-19T14:37:40;12.00;99.90
18934;DHT22;9599;53.706;10.384;2023-11-19T14:40:09;12.00;99.90
18934;DHT22;9599;53.706;10.384;2023-11-19T14:42:38;11.90;99.90
18934;DHT22;9599;53.706;10.384;2023-11-19T14:45:07;11.90;99.90
18934;DHT22;9599;53.706;10.384;2023-11-19T14:47:38;11.80;99.90
18934;DHT22;9599;53.706;10.384;2023-11-19T14:50:07;11.70;99.90
18934;DHT22;9599;53.706;10.384;2023-11-19T14:52:36;11.80;99.90
18934;DHT22;9599;53.706;10.384;2023-11-19T14:55:05;11.80;99.90
18934;DHT22;9599;53.706;10.384;2023-11-19T14:57:33;11.80;99.90
18934;DHT22;9599;53.706;10.384;2023-11-19T15:00:03;11.80;99.90
18934;DHT22;9599;53.706;10.384;2023-11-19T15:02:40;11.80;99.90
18934;DHT22;9599;53.706;10.384;2023-11-19T15:05:09;11.70;99.90
18934;DHT22;9599;53.706;10.384;2023-11-19T15:07:39;11.60;99.90
18934;DHT22;9599;53.706;10.384;2023-11-19T15:10:07;11.50;99.90
18934;DHT22;9599;53.706;10.384;2023-11-19T15:12:37;11.40;99.90
18934;DHT22;9599;53.706;10.384;2023-11-19T15:15:08;11.30;99.90
18934;DHT22;9599;53.706;10.384;2023-11-19T15:17:40;11.30;99.90
18934;DHT22;9599;53.706;10.384;2023-11-19T15:20:09;11.30;99.90
18934;DHT22;9599;53.706;10.384;2023-11-19T15:22:39;11.30;99.90
18934;DHT22;9599;53.706;10.384;2023-11-19T15:25:08;11.20;99.90
18934;DHT22;9599;53.706;10.384;2023-11-19T15:27:37;11.10;99.90
18934;DHT22;9599;53.706;10.384;2023-11-19T15:30:06;11.10;99.90
18934;DHT22;9599;53.706;10.384;2023-11-19T15:32:36;11.00;99.90
18934;DHT22;9599;53.706;10.384;2023-11-19T15:35:06;11.00;99.90
18934;DHT22;9599;53.706;10.384;2023-11-19T15:37:35;10.90;99.90
18934;DHT22;9599;53.706;10.384;2023-11-19T15:40:06;10.90;99.90
18934;DHT22;9599;53.706;10.384;2023-11-19T15:42:35;10.90;99.90
18934;DHT22;9599;53.706;10.384;2023-11-19T15:45:04;10.80;99.90
18934;DHT22;9599;53.706;10.384;2023-11-19T15:47:33;10.70;99.90
18934;DHT22;9599;53.706;10.384;2023-11-19T15:50:02;10.70;99.90
18934;DHT22;9599;53.706;10.384;2023-11-19T15:52:31;10.60;99.90